Time;durP1;ratioP1;P1;durP2;ratioP2;P2;SDS_P1;SDS_P2;PMS_P1;PMS_P2;Temp;Humidity;BMP_temperature;BMP_pressure;BME280_temperature;BME280_humidity;BME280_pressure;Samples;Min_cycle;Max_cycle;Signal;HPM_P1;HPM_P2
2022/04/05 00:02:24;;;;;;;8.25;4.68;;;7.00;99.90;;;;;;5012187;28;20580;-87
2022/04/05 00:04:49;;;;;;;5.85;4.13;;;7.00;99.90;;;;;;5013555;28;20022;-87
2022/04/05 00:07:15;;;;;;;6.82;4.38;;;7.00;99.90;;;;;;5013534;28;20473;-87
2022/04/05 00:09:41;;;;;;;6.63;4.25;;;7.00;99.90;;;;;;5012275;28;20033;-86
2022/04/05 00:12:08;;;;;;;7.35;4.53;;;7.00;99.90;;;;;;5012135;28;20385;-89
2022/04/05 00:14:33;;;;;;;7.03;4.68;;;7.00;99.90;;;;;;5012229;28;20084;-87
2022/04/05 00:16:59;;;;;;;6.28;4.50;;;7.00;99.90;;;;;;5013332;28;20022;-84
2022/04/05 00:19:25;;;;;;;6.30;4.20;;;7.00;99.90;;;;;;5013633;28;20029;-87
2022/04/05 00:21:54;;;;;;;7.28;4.43;;;6.90;99.90;;;;;;5013146;28;20026;-88
2022/04/05 00:24:20;;;;;;;6.75;4.93;;;6.90;99.90;;;;;;5012014;28;20026;-85
2022/04/05 00:26:45;;;;;;;7.93;4.45;;;6.90;99.90;;;;;;5013603;28;20018;-85
2022/04/05 00:29:11;;;;;;;7.60;5.18;;;6.90;99.90;;;;;;5013324;28;20443;-86
2022/04/05 00:31:37;;;;;;;8.20;4.85;;;6.90;99.90;;;;;;5012006;28;20030;-87
2022/04/05 00:34:03;;;;;;;7.65;4.60;;;6.90;99.90;;;;;;5013308;28;20029;-87
2022/04/05 00:36:28;;;;;;;7.05;4.45;;;6.90;99.90;;;;;;5013261;28;20097;-87
2022/04/05 00:38:54;;;;;;;6.80;5.22;;;6.90;99.90;;;;;;5013499;28;20036;-84
2022/04/05 00:41:20;;;;;;;8.82;5.00;;;6.90;99.90;;;;;;5011859;28;20018;-85
2022/04/05 00:43:45;;;;;;;6.40;4.30;;;6.90;99.90;;;;;;5013124;28;20034;-88
2022/04/05 00:46:11;;;;;;;8.32;4.97;;;6.90;99.90;;;;;;5011949;28;20029;-86
2022/04/05 00:48:48;;;;;;;5.93;4.40;;;6.90;99.90;;;;;;5011801;28;20026;-84
2022/04/05 00:51:15;;;;;;;6.95;4.38;;;6.90;99.90;;;;;;5013058;28;20022;-86
2022/04/05 00:53:45;;;;;;;8.10;4.78;;;6.90;99.90;;;;;;5012869;28;20045;-86
2022/04/05 00:56:13;;;;;;;6.30;4.50;;;6.90;99.90;;;;;;5013064;28;20033;-85
2022/04/05 00:58:40;;;;;;;8.82;4.65;;;6.90;99.90;;;;;;5011743;28;20041;-88
2022/04/05 01:01:06;;;;;;;5.38;4.30;;;6.90;99.90;;;;;;5011993;28;20029;-87
2022/04/05 01:03:32;;;;;;;6.57;4.18;;;6.90;99.90;;;;;;5011606;28;20054;-87
2022/04/05 01:06:01;;;;;;;8.52;4.30;;;6.90;99.90;;;;;;5013017;28;20062;-87
2022/04/05 01:08:28;;;;;;;8.85;4.47;;;6.90;99.90;;;;;;5012431;28;20175;-85
2022/04/05 01:10:54;;;;;;;6.70;4.65;;;6.90;99.90;;;;;;5012942;28;20029;-87
2022/04/05 01:13:21;;;;;;;9.13;4.78;;;6.90;99.90;;;;;;5011558;28;20025;-87
2022/04/05 01:15:47;;;;;;;10.45;4.90;;;6.90;99.90;;;;;;5011568;28;20026;-87
2022/04/05 01:18:14;;;;;;;8.68;4.60;;;6.90;99.90;;;;;;5011532;28;20026;-86
2022/04/05 01:20:40;;;;;;;7.25;5.07;;;6.90;99.90;;;;;;5011545;28;20033;-88
2022/04/05 01:23:05;;;;;;;6.80;4.60;;;6.90;99.90;;;;;;5011480;28;20030;-86
2022/04/05 01:25:31;;;;;;;8.68;4.80;;;6.90;99.90;;;;;;5011488;28;20026;-86
2022/04/05 01:27:57;;;;;;;7.40;4.82;;;6.90;99.90;;;;;;5011446;28;20022;-88
2022/04/05 01:30:23;;;;;;;5.93;4.38;;;6.90;99.90;;;;;;5011483;28;20022;-87
2022/04/05 01:32:49;;;;;;;7.63;4.60;;;6.80;99.90;;;;;;5011489;28;20026;-84
2022/04/05 01:35:15;;;;;;;7.30;4.93;;;6.90;99.90;;;;;;5015872;28;20022;-87
2022/04/05 01:37:41;;;;;;;5.93;4.40;;;6.90;99.90;;;;;;5014929;28;20342;-84
2022/04/05 01:40:08;;;;;;;6.38;4.90;;;6.90;99.90;;;;;;5014900;28;20132;-87
2022/04/05 01:42:34;;;;;;;5.45;4.20;;;6.90;99.90;;;;;;5014697;28;20026;-88
2022/04/05 01:45:01;;;;;;;8.32;4.18;;;6.80;99.90;;;;;;5014775;28;20390;-87
2022/04/05 01:47:26;;;;;;;6.78;4.22;;;6.90;99.90;;;;;;5015913;28;20033;-85
2022/04/05 01:49:52;;;;;;;6.80;4.50;;;6.90;99.90;;;;;;5015935;28;20382;-87
2022/04/05 01:52:18;;;;;;;6.38;4.60;;;6.90;99.90;;;;;;5015676;28;20398;-87
2022/04/05 01:54:45;;;;;;;6.60;4.07;;;6.90;99.90;;;;;;5014570;28;20516;-86
2022/04/05 01:57:11;;;;;;;7.43;4.45;;;6.90;99.90;;;;;;5014576;28;20386;-87
2022/04/05 01:59:39;;;;;;;7.68;4.28;;;6.90;99.90;;;;;;5014468;28;20485;-86
2022/04/05 02:02:06;;;;;;;7.28;4.93;;;6.80;99.90;;;;;;5014446;28;20034;-86
2022/04/05 02:04:33;;;;;;;7.55;4.35;;;6.80;99.90;;;;;;5014400;28;20026;-84
2022/04/05 02:06:59;;;;;;;8.88;4.47;;;6.80;99.90;;;;;;5014302;28;20026;-86
2022/04/05 02:09:24;;;;;;;7.07;4.70;;;6.80;99.90;;;;;;5014385;28;20026;-87
2022/04/05 02:11:53;;;;;;;6.95;4.60;;;6.80;99.90;;;;;;5015512;28;20386;-86
2022/04/05 02:14:19;;;;;;;7.70;4.97;;;6.80;99.90;;;;;;5015430;28;20033;-82
2022/04/05 02:16:45;;;;;;;7.55;4.65;;;6.80;99.90;;;;;;5014122;28;20022;-87
2022/04/05 02:19:10;;;;;;;10.55;5.03;;;6.80;99.90;;;;;;5014133;28;20116;-89
2022/04/05 02:21:36;;;;;;;7.18;4.32;;;6.80;99.90;;;;;;5014055;28;20034;-85
2022/04/05 02:24:02;;;;;;;7.57;4.80;;;6.90;99.90;;;;;;5013946;28;20029;-85
2022/04/05 02:26:27;;;;;;;7.10;4.28;;;6.80;99.90;;;;;;5014035;28;20101;-88
2022/04/05 02:28:53;;;;;;;6.65;4.70;;;6.80;99.90;;;;;;5013972;28;20548;-83
2022/04/05 02:31:19;;;;;;;8.10;4.60;;;6.80;99.90;;;;;;5013906;28;20026;-87
2022/04/05 02:33:45;;;;;;;9.30;4.35;;;6.80;99.90;;;;;;5013876;28;20030;-86
2022/04/05 02:36:11;;;;;;;6.18;4.47;;;6.80;99.90;;;;;;5015406;28;20473;-87
2022/04/05 02:38:36;;;;;;;6.22;4.38;;;6.80;99.90;;;;;;5013700;28;20036;-86
2022/04/05 02:41:06;;;;;;;9.10;5.03;;;6.80;99.90;;;;;;5013729;28;20029;-88
2022/04/05 02:43:33;;;;;;;7.13;4.63;;;6.80;99.90;;;;;;5013656;28;20096;-87
2022/04/05 02:45:59;;;;;;;7.15;4.30;;;6.80;99.90;;;;;;5013504;28;20025;-87
2022/04/05 02:48:25;;;;;;;9.52;4.85;;;6.80;99.90;;;;;;5013614;28;20137;-87
2022/04/05 02:50:52;;;;;;;5.65;4.07;;;6.80;99.90;;;;;;5013484;28;20064;-87
2022/04/05 02:53:18;;;;;;;7.63;4.43;;;6.80;99.90;;;;;;5013304;28;20069;-84
2022/04/05 02:55:44;;;;;;;5.72;4.13;;;6.80;99.90;;;;;;5014729;28;20048;-87
2022/04/05 02:58:10;;;;;;;6.70;4.13;;;6.90;99.90;;;;;;5013381;28;20032;-87
2022/04/05 03:00:36;;;;;;;7.28;4.75;;;6.90;99.90;;;;;;5013405;28;20431;-88
2022/04/05 03:03:03;;;;;;;8.25;4.93;;;6.80;99.90;;;;;;5013241;28;20057;-87
2022/04/05 03:05:28;;;;;;;6.80;4.05;;;6.80;99.90;;;;;;5013280;28;20496;-87
2022/04/05 03:07:54;;;;;;;7.93;4.78;;;6.80;99.90;;;;;;5013229;28;20022;-85
2022/04/05 03:10:20;;;;;;;10.18;4.60;;;6.80;99.90;;;;;;5013241;28;20533;-88
2022/04/05 03:12:48;;;;;;;6.45;3.97;;;6.80;99.90;;;;;;5013359;28;20030;-88
2022/04/05 03:15:14;;;;;;;6.35;3.88;;;6.90;99.90;;;;;;5014420;28;20033;-87
2022/04/05 03:17:44;;;;;;;5.68;3.83;;;6.80;99.90;;;;;;5013058;28;20029;-88
2022/04/05 03:20:14;;;;;;;5.82;3.92;;;6.80;99.90;;;;;;5014301;28;20026;-87
2022/04/05 03:22:41;;;;;;;7.65;4.20;;;6.80;99.90;;;;;;5014138;28;20080;-87
2022/04/05 03:25:08;;;;;;;7.38;3.85;;;6.80;99.90;;;;;;5012881;28;20065;-88
2022/04/05 03:27:36;;;;;;;6.47;4.22;;;6.80;99.90;;;;;;5014257;28;20084;-88
2022/04/05 03:30:03;;;;;;;4.88;3.88;;;6.80;99.90;;;;;;5012767;28;20394;-87
2022/04/05 03:32:32;;;;;;;6.40;4.28;;;6.80;99.90;;;;;;5014038;28;20037;-88
2022/04/05 03:34:58;;;;;;;5.50;3.95;;;6.80;99.90;;;;;;5014224;28;20075;-87
2022/04/05 03:37:24;;;;;;;7.03;4.00;;;6.80;99.90;;;;;;5014293;28;20026;-87
2022/04/05 03:39:52;;;;;;;5.50;3.97;;;6.80;99.90;;;;;;5012678;28;20109;-87
2022/04/05 03:42:18;;;;;;;6.10;4.35;;;6.80;99.90;;;;;;5012542;28;20057;-87
2022/04/05 03:44:44;;;;;;;6.10;4.53;;;6.80;99.90;;;;;;5014203;28;20409;-86
2022/04/05 03:47:09;;;;;;;6.82;4.10;;;6.80;99.90;;;;;;5012848;28;20022;-87
2022/04/05 03:49:35;;;;;;;5.63;3.97;;;6.80;99.90;;;;;;5012817;28;20081;-87
2022/04/05 03:52:03;;;;;;;5.25;3.80;;;6.80;99.90;;;;;;5012227;28;20525;-87
2022/04/05 03:54:29;;;;;;;9.15;4.82;;;6.80;99.90;;;;;;5014058;28;20026;-87
2022/04/05 03:56:55;;;;;;;5.35;3.85;;;6.80;99.90;;;;;;5013234;28;20052;-87
2022/04/05 03:59:20;;;;;;;6.00;4.32;;;6.80;99.90;;;;;;5012613;28;20018;-87
2022/04/05 04:01:46;;;;;;;8.90;4.28;;;6.80;99.90;;;;;;5013431;28;20029;-87
2022/04/05 04:04:14;;;;;;;6.00;3.78;;;6.80;99.90;;;;;;5012284;28;20105;-88
2022/04/05 04:06:40;;;;;;;7.43;4.15;;;6.80;99.90;;;;;;5013552;28;20018;-87
2022/04/05 04:09:06;;;;;;;6.75;4.05;;;6.90;99.90;;;;;;5012299;28;20444;-87
2022/04/05 04:11:31;;;;;;;5.50;3.75;;;6.80;99.90;;;;;;5013433;28;20018;-88
2022/04/05 04:13:58;;;;;;;5.70;4.10;;;6.90;99.90;;;;;;5013434;28;20057;-86
2022/04/05 04:16:24;;;;;;;5.15;3.88;;;6.90;99.90;;;;;;5012133;28;20026;-84
2022/04/05 04:18:50;;;;;;;6.60;4.20;;;6.80;99.90;;;;;;5013443;28;20108;-86
2022/04/05 04:21:16;;;;;;;7.45;4.15;;;6.80;99.90;;;;;;5012332;28;20084;-87
2022/04/05 04:23:41;;;;;;;5.82;4.15;;;6.80;99.90;;;;;;5011989;28;20022;-88
2022/04/05 04:26:07;;;;;;;7.28;3.95;;;6.80;99.90;;;;;;5012027;28;20389;-89
2022/04/05 04:28:33;;;;;;;7.55;4.00;;;6.80;99.90;;;;;;5013303;28;20026;-87
2022/04/05 04:30:58;;;;;;;5.60;3.85;;;6.80;99.90;;;;;;5011965;28;20037;-88
2022/04/05 04:33:26;;;;;;;9.23;4.30;;;6.90;99.90;;;;;;5012034;28;20041;-87
2022/04/05 04:35:53;;;;;;;6.97;4.05;;;6.80;99.90;;;;;;5011856;28;20025;-87
2022/04/05 04:38:19;;;;;;;6.78;3.97;;;6.90;99.90;;;;;;5013492;28;20032;-89
2022/04/05 04:40:48;;;;;;;6.45;3.60;;;6.90;99.90;;;;;;5013219;28;20100;-87
2022/04/05 04:43:15;;;;;;;4.95;3.70;;;6.90;99.90;;;;;;5013053;28;20160;-87
2022/04/05 04:45:41;;;;;;;6.80;4.10;;;6.80;99.90;;;;;;5011909;28;20030;-87
2022/04/05 04:48:07;;;;;;;6.03;3.75;;;6.90;99.90;;;;;;5011742;28;20441;-87
2022/04/05 04:50:33;;;;;;;5.32;3.63;;;6.90;99.90;;;;;;5012954;28;20026;-86
2022/04/05 04:52:58;;;;;;;6.63;3.70;;;6.90;99.90;;;;;;5011639;28;20045;-86
2022/04/05 04:55:25;;;;;;;6.55;4.32;;;6.90;99.90;;;;;;5011640;28;20025;-86
2022/04/05 04:57:51;;;;;;;5.20;3.45;;;6.90;99.90;;;;;;5011641;28;20076;-87
2022/04/05 05:00:17;;;;;;;7.85;3.92;;;6.90;99.90;;;;;;5012920;28;20096;-87
2022/04/05 05:02:47;;;;;;;6.10;4.07;;;6.90;99.90;;;;;;5011642;28;20122;-88
2022/04/05 05:05:22;;;;;;;6.20;4.10;;;6.90;99.90;;;;;;5011743;28;20018;-87
2022/04/05 05:07:49;;;;;;;8.40;3.85;;;6.90;99.90;;;;;;5011651;28;20022;-87
2022/04/05 05:10:16;;;;;;;5.95;4.28;;;6.80;99.90;;;;;;5015074;28;20504;-85
2022/04/05 05:12:43;;;;;;;6.75;3.95;;;6.80;99.90;;;;;;5015340;28;20172;-87
2022/04/05 05:15:17;;;;;;;7.22;4.00;;;6.80;99.90;;;;;;5016619;28;20026;-88
2022/04/05 05:17:44;;;;;;;5.38;3.67;;;6.80;99.90;;;;;;5015369;28;20026;-84
2022/04/05 05:20:11;;;;;;;6.65;3.63;;;6.80;99.90;;;;;;5015272;28;20484;-87
2022/04/05 05:22:36;;;;;;;5.32;3.53;;;6.80;99.90;;;;;;5016392;28;20112;-87
2022/04/05 05:25:03;;;;;;;5.50;3.70;;;6.80;99.90;;;;;;5015122;28;20150;-84
2022/04/05 05:27:29;;;;;;;6.57;4.15;;;6.80;99.90;;;;;;5015114;28;20389;-87
2022/04/05 05:29:54;;;;;;;6.43;3.92;;;6.80;99.90;;;;;;5015087;28;20394;-86
2022/04/05 05:32:20;;;;;;;5.47;3.45;;;6.80;99.90;;;;;;5014901;28;20025;-87
2022/04/05 05:34:47;;;;;;;5.65;3.50;;;6.80;99.90;;;;;;5014961;28;20136;-87
2022/04/05 05:37:13;;;;;;;9.52;4.00;;;6.90;99.90;;;;;;5016197;28;20029;-87
2022/04/05 05:39:38;;;;;;;5.20;3.90;;;6.80;99.90;;;;;;5016117;28;20025;-86
2022/04/05 05:42:08;;;;;;;6.35;4.25;;;6.80;99.90;;;;;;5014754;28;20037;-88
2022/04/05 05:44:35;;;;;;;7.32;3.67;;;6.80;99.90;;;;;;5014825;28;20018;-87
2022/04/05 05:47:02;;;;;;;6.22;3.58;;;6.80;99.90;;;;;;5015959;28;20465;-87
2022/04/05 05:49:28;;;;;;;6.97;3.78;;;6.80;99.90;;;;;;5015975;28;20084;-86
2022/04/05 05:51:54;;;;;;;4.70;3.22;;;6.80;99.90;;;;;;5014378;28;20441;-87
2022/04/05 05:54:20;;;;;;;5.63;3.45;;;6.90;99.90;;;;;;5014558;28;20080;-88
2022/04/05 05:56:46;;;;;;;7.65;3.40;;;6.90;99.90;;;;;;5014587;28;20022;-88
2022/04/05 05:59:12;;;;;;;5.00;3.38;;;6.90;99.90;;;;;;5014487;28;20026;-87
2022/04/05 06:01:38;;;;;;;5.68;3.70;;;6.80;99.90;;;;;;5015730;28;20046;-86
2022/04/05 06:04:05;;;;;;;5.22;3.67;;;6.90;99.90;;;;;;5014419;28;20056;-88
2022/04/05 06:06:31;;;;;;;4.85;3.58;;;6.90;99.90;;;;;;5014417;28;20083;-88
2022/04/05 06:08:57;;;;;;;6.78;3.95;;;6.80;99.90;;;;;;5014275;28;20057;-86
2022/04/05 06:11:24;;;;;;;6.70;3.90;;;6.80;99.90;;;;;;5015850;28;20381;-87
2022/04/05 06:13:50;;;;;;;5.03;3.20;;;6.80;99.90;;;;;;5014210;28;20026;-88
2022/04/05 06:16:18;;;;;;;4.75;3.17;;;6.80;99.90;;;;;;5014255;28;20481;-87
2022/04/05 06:18:44;;;;;;;5.05;3.40;;;6.80;99.90;;;;;;5014147;28;20030;-87
2022/04/05 06:21:10;;;;;;;7.70;4.00;;;6.90;99.90;;;;;;5014907;28;20100;-87
2022/04/05 06:23:36;;;;;;;5.80;3.60;;;6.90;99.90;;;;;;5015431;28;20038;-87
2022/04/05 06:26:01;;;;;;;10.68;4.03;;;6.80;99.90;;;;;;5014038;28;20022;-87
2022/04/05 06:28:27;;;;;;;4.50;3.47;;;6.80;99.90;;;;;;5014029;28;20026;-88
2022/04/05 06:30:53;;;;;;;4.55;3.55;;;6.90;99.90;;;;;;5013866;28;20109;-87
2022/04/05 06:33:23;;;;;;;5.72;3.70;;;6.90;99.90;;;;;;5015052;28;20026;-88
2022/04/05 06:35:52;;;;;;;4.55;3.40;;;6.90;99.90;;;;;;5015152;28;20022;-87
2022/04/05 06:38:18;;;;;;;6.55;3.60;;;6.90;99.90;;;;;;5013653;28;20052;-86
2022/04/05 06:40:44;;;;;;;3.95;2.85;;;6.90;99.90;;;;;;5013663;28;20021;-87
2022/04/05 06:43:11;;;;;;;6.55;3.58;;;6.90;99.90;;;;;;5013632;28;20030;-87
2022/04/05 06:45:37;;;;;;;6.30;3.10;;;6.90;99.90;;;;;;5013521;28;20124;-86
2022/04/05 06:48:06;;;;;;;8.45;3.55;;;6.90;99.90;;;;;;5013585;28;20060;-87
2022/04/05 06:50:32;;;;;;;5.30;3.42;;;6.90;99.90;;;;;;5013422;28;20033;-86
2022/04/05 06:52:59;;;;;;;5.18;3.30;;;6.90;99.90;;;;;;5013283;28;20147;-87
2022/04/05 06:55:28;;;;;;;6.03;3.55;;;6.90;99.90;;;;;;5014958;28;20311;-87
2022/04/05 06:57:55;;;;;;;5.05;3.42;;;6.90;99.90;;;;;;5013430;28;20145;-86
2022/04/05 07:00:23;;;;;;;6.30;3.35;;;7.00;99.90;;;;;;5013403;28;20088;-86
2022/04/05 07:02:51;;;;;;;5.25;3.50;;;6.90;99.90;;;;;;5014498;28;20029;-87
2022/04/05 07:05:19;;;;;;;6.30;3.10;;;7.00;99.90;;;;;;5014466;28;20057;-86
2022/04/05 07:07:45;;;;;;;6.97;3.70;;;7.00;99.90;;;;;;5014765;28;20053;-88
2022/04/05 07:10:14;;;;;;;5.35;3.50;;;7.00;99.90;;;;;;5013132;28;20049;-86
2022/04/05 07:12:41;;;;;;;4.32;3.33;;;7.00;99.90;;;;;;5013005;28;20026;-86
2022/04/05 07:15:09;;;;;;;5.43;3.75;;;7.10;99.90;;;;;;5014383;28;20034;-87
2022/04/05 07:17:34;;;;;;;4.90;3.58;;;7.10;99.90;;;;;;5014304;28;20076;-87
2022/04/05 07:20:00;;;;;;;6.10;3.55;;;7.10;99.90;;;;;;5014243;28;20420;-87
2022/04/05 07:22:28;;;;;;;4.03;3.08;;;7.20;99.90;;;;;;5012941;28;20503;-85
2022/04/05 07:24:54;;;;;;;4.65;3.20;;;7.10;99.90;;;;;;5014187;28;20444;-87
2022/04/05 07:27:19;;;;;;;5.43;3.33;;;7.20;99.90;;;;;;5014373;28;20021;-87
2022/04/05 07:29:45;;;;;;;5.60;3.25;;;7.20;99.90;;;;;;5013025;28;20165;-86
2022/04/05 07:32:10;;;;;;;6.40;3.60;;;7.20;99.90;;;;;;5011969;28;20080;-87
2022/04/05 07:34:36;;;;;;;6.18;3.60;;;7.20;99.90;;;;;;5013989;28;20029;-86
2022/04/05 07:37:03;;;;;;;9.30;3.35;;;7.20;99.90;;;;;;5012600;28;20026;-87
2022/04/05 07:39:28;;;;;;;5.75;3.47;;;7.20;99.90;;;;;;5012655;28;20105;-86
2022/04/05 07:41:54;;;;;;;6.68;3.60;;;7.20;99.90;;;;;;5012550;28;20046;-86
2022/04/05 07:44:20;;;;;;;5.35;2.75;;;7.20;99.90;;;;;;5012466;28;20117;-85
2022/04/05 07:46:46;;;;;;;6.32;3.25;;;7.20;99.90;;;;;;5012461;28;20113;-86
2022/04/05 07:49:13;;;;;;;6.07;3.33;;;7.30;99.90;;;;;;5012471;28;20033;-86
2022/04/05 07:51:38;;;;;;;5.25;3.35;;;7.30;99.90;;;;;;5012284;28;20033;-88
2022/04/05 07:54:05;;;;;;;6.43;3.58;;;7.30;99.90;;;;;;5013494;28;20038;-86
2022/04/05 07:56:30;;;;;;;4.43;3.00;;;7.30;99.90;;;;;;5014024;28;20049;-84
2022/04/05 07:58:57;;;;;;;6.45;3.13;;;7.30;99.90;;;;;;5012359;28;20488;-87
2022/04/05 08:01:24;;;;;;;6.38;3.50;;;7.30;99.90;;;;;;5012254;28;20052;-86
2022/04/05 08:03:51;;;;;;;7.22;3.50;;;7.30;99.90;;;;;;5013627;28;20030;-86
2022/04/05 08:06:17;;;;;;;5.38;3.40;;;7.40;99.90;;;;;;5013007;28;20060;-87
2022/04/05 08:08:42;;;;;;;5.72;3.28;;;7.30;99.90;;;;;;5013776;28;20470;-88
2022/04/05 08:11:08;;;;;;;4.68;3.30;;;7.40;99.90;;;;;;5012151;28;20025;-87
2022/04/05 08:13:33;;;;;;;5.13;3.25;;;7.40;99.90;;;;;;5012096;28;20389;-87
2022/04/05 08:15:59;;;;;;;4.80;3.17;;;7.40;99.90;;;;;;5012025;28;20432;-87
2022/04/05 08:18:25;;;;;;;5.28;3.22;;;7.40;99.90;;;;;;5013269;28;20424;-87
2022/04/05 08:20:50;;;;;;;4.65;2.80;;;7.40;99.90;;;;;;5011960;28;20473;-87
2022/04/05 08:23:16;;;;;;;4.57;2.83;;;7.40;99.90;;;;;;5013267;28;20030;-86
2022/04/05 08:25:43;;;;;;;4.75;3.03;;;7.40;99.90;;;;;;5011946;28;20022;-87
2022/04/05 08:28:08;;;;;;;6.82;3.70;;;7.40;99.90;;;;;;5011833;28;20022;-86
2022/04/05 08:30:34;;;;;;;6.35;3.22;;;7.40;99.90;;;;;;5013110;28;20018;-87
2022/04/05 08:33:00;;;;;;;5.82;3.35;;;7.30;99.90;;;;;;5011857;28;20026;-87
2022/04/05 08:35:26;;;;;;;5.32;3.00;;;7.40;99.90;;;;;;5011725;28;20441;-87
2022/04/05 08:37:53;;;;;;;4.57;2.95;;;7.40;99.90;;;;;;5011672;28;20033;-86
2022/04/05 08:40:21;;;;;;;5.03;3.25;;;7.40;99.90;;;;;;5013157;28;20497;-86
2022/04/05 08:42:50;;;;;;;5.38;3.22;;;7.30;99.90;;;;;;5012807;28;20033;-87
2022/04/05 08:45:18;;;;;;;8.43;3.03;;;7.40;99.90;;;;;;5015760;28;20029;-82
2022/04/05 08:47:48;;;;;;;7.40;3.15;;;7.30;99.90;;;;;;5015744;28;20125;-88
2022/04/05 08:50:23;;;;;;;4.28;2.90;;;7.30;99.90;;;;;;5015664;28;20124;-86
2022/04/05 08:52:50;;;;;;;7.45;3.40;;;7.30;99.90;;;;;;5015487;28;20061;-88
2022/04/05 08:55:17;;;;;;;7.25;3.70;;;7.30;99.90;;;;;;5016944;28;20503;-86
2022/04/05 08:57:43;;;;;;;8.40;3.30;;;7.30;99.90;;;;;;5017147;28;20030;-86
2022/04/05 09:00:11;;;;;;;7.78;3.70;;;7.40;99.90;;;;;;5015550;28;20528;-88
2022/04/05 09:02:37;;;;;;;6.18;3.03;;;7.30;99.90;;;;;;5015421;28;20034;-87
2022/04/05 09:05:04;;;;;;;6.03;3.63;;;7.40;99.90;;;;;;5016712;28;20025;-87
2022/04/05 09:07:32;;;;;;;5.13;3.05;;;7.30;99.90;;;;;;5015383;28;20108;-88
2022/04/05 09:10:13;;;;;;;7.13;2.92;;;7.40;99.90;;;;;;5015435;28;20116;-87
2022/04/05 09:12:50;;;;;;;6.45;3.35;;;7.40;99.90;;;;;;5016616;28;20030;-86
2022/04/05 09:15:16;;;;;;;5.05;3.42;;;7.40;99.90;;;;;;5016585;28;20116;-87
2022/04/05 09:17:43;;;;;;;4.93;3.05;;;7.40;99.90;;;;;;5016589;28;20034;-87
2022/04/05 09:20:13;;;;;;;4.70;3.25;;;7.40;99.90;;;;;;5015204;28;20053;-87
2022/04/05 09:22:39;;;;;;;5.65;3.28;;;7.40;99.90;;;;;;5015106;28;20104;-87
2022/04/05 09:25:12;;;;;;;6.25;3.03;;;7.40;99.90;;;;;;5016443;28;20447;-87
2022/04/05 09:27:56;;;;;;;6.97;3.08;;;7.40;99.90;;;;;;5015086;28;20029;-87
2022/04/05 09:30:31;;;;;;;4.47;2.88;;;7.40;99.90;;;;;;5015158;28;20076;-86
2022/04/05 09:32:58;;;;;;;6.10;3.25;;;7.40;99.90;;;;;;5014904;28;20033;-88
2022/04/05 09:35:44;;;;;;;6.00;2.92;;;7.40;99.90;;;;;;5014968;28;20057;-87
2022/04/05 09:38:15;;;;;;;6.47;3.20;;;7.40;99.90;;;;;;5014683;28;20045;-86
2022/04/05 09:40:42;;;;;;;6.22;3.28;;;7.40;99.90;;;;;;5014801;28;20029;-87
2022/04/05 09:43:15;;;;;;;7.75;3.20;;;7.40;99.90;;;;;;5014827;28;20026;-89
2022/04/05 09:45:49;;;;;;;5.55;3.30;;;7.30;99.90;;;;;;5015888;28;20022;-87
2022/04/05 09:48:16;;;;;;;6.10;3.15;;;7.40;99.90;;;;;;5014741;28;20034;-88
2022/04/05 09:51:12;;;;;;;7.38;2.85;;;7.40;99.90;;;;;;5014687;28;20113;-87
2022/04/05 09:53:56;;;;;;;5.38;3.35;;;7.40;99.90;;;;;;5015552;28;20038;-88
2022/04/05 09:56:33;;;;;;;5.20;3.20;;;7.40;99.90;;;;;;5016261;28;20022;-87
2022/04/05 09:59:14;;;;;;;4.47;2.80;;;7.40;99.90;;;;;;5014670;28;20038;-87
2022/04/05 10:01:40;;;;;;;6.57;3.30;;;7.50;99.90;;;;;;5014791;28;20037;-87
2022/04/05 10:04:11;;;;;;;5.05;3.00;;;7.50;99.90;;;;;;5014468;28;20034;-89
2022/04/05 10:06:46;;;;;;;5.22;2.95;;;7.50;99.90;;;;;;5014598;28;20160;-87
2022/04/05 10:09:14;;;;;;;4.85;2.80;;;7.50;99.90;;;;;;5015664;28;20014;-86
2022/04/05 10:11:41;;;;;;;5.38;2.95;;;7.50;99.90;;;;;;5014312;28;20022;-85
2022/04/05 10:14:09;;;;;;;5.05;2.92;;;7.50;99.90;;;;;;5015586;28;20034;-87
2022/04/05 10:16:35;;;;;;;4.38;2.63;;;7.50;99.90;;;;;;5014556;28;20025;-84
2022/04/05 10:19:04;;;;;;;4.22;2.75;;;7.50;99.90;;;;;;5015443;28;20503;-88
2022/04/05 10:21:34;;;;;;;6.72;2.97;;;7.50;99.90;;;;;;5014289;28;20381;-88
2022/04/05 10:24:02;;;;;;;4.40;2.80;;;7.50;99.90;;;;;;5014293;28;20054;-88
2022/04/05 10:26:30;;;;;;;5.53;2.90;;;7.50;99.90;;;;;;5014327;28;20388;-87
2022/04/05 10:28:59;;;;;;;4.82;2.70;;;7.50;99.90;;;;;;5014124;28;20504;-87
2022/04/05 10:31:49;;;;;;;4.60;2.58;;;7.50;99.90;;;;;;5014245;28;20053;-89
2022/04/05 10:34:31;;;;;;;5.47;2.67;;;7.50;99.90;;;;;;5014032;28;20037;-86
2022/04/05 10:37:16;;;;;;;4.07;2.55;;;7.60;99.90;;;;;;5014088;28;20452;-87
2022/04/05 10:39:44;;;;;;;4.63;2.80;;;7.50;99.90;;;;;;5014051;28;20034;-87
2022/04/05 10:42:15;;;;;;;4.35;2.78;;;7.50;99.90;;;;;;5013927;28;20032;-88
2022/04/05 10:44:51;;;;;;;4.15;2.67;;;7.50;99.90;;;;;;5015214;28;20022;-87
2022/04/05 10:47:17;;;;;;;5.57;2.70;;;7.50;99.90;;;;;;5013924;28;20496;-85
2022/04/05 10:49:47;;;;;;;5.10;2.90;;;7.60;99.90;;;;;;5013687;28;20023;-87
2022/04/05 10:52:27;;;;;;;5.13;3.20;;;7.60;99.90;;;;;;5014848;28;20045;-87
2022/04/05 10:55:04;;;;;;;9.60;2.63;;;7.60;99.90;;;;;;5013699;28;20117;-88
2022/04/05 10:57:39;;;;;;;5.38;2.67;;;7.60;99.90;;;;;;5013725;28;20037;-87
2022/04/05 11:00:07;;;;;;;5.50;2.92;;;7.60;99.90;;;;;;5014966;28;20013;-88
2022/04/05 11:02:39;;;;;;;5.60;3.03;;;7.60;99.90;;;;;;5014774;28;20026;-87
2022/04/05 11:05:13;;;;;;;4.10;2.47;;;7.60;99.90;;;;;;5013497;28;20485;-87
2022/04/05 11:07:54;;;;;;;6.32;2.72;;;7.60;99.90;;;;;;5013568;28;20028;-88
2022/04/05 11:10:25;;;;;;;5.88;3.40;;;7.70;99.90;;;;;;5013180;28;20018;-86
2022/04/05 11:13:00;;;;;;;4.35;3.00;;;7.70;99.90;;;;;;5014598;28;20022;-87
2022/04/05 11:15:46;;;;;;;7.72;2.90;;;7.70;99.90;;;;;;5013277;28;20026;-87
2022/04/05 11:18:16;;;;;;;4.03;2.90;;;7.70;99.90;;;;;;5013194;28;20061;-86
2022/04/05 11:20:46;;;;;;;4.30;2.88;;;7.70;99.90;;;;;;5013093;28;20101;-89
2022/04/05 11:23:14;;;;;;;4.28;3.10;;;7.70;99.90;;;;;;5013284;28;20022;-88
2022/04/05 11:25:42;;;;;;;5.22;2.75;;;7.70;99.90;;;;;;5013051;28;20026;-88
2022/04/05 11:28:53;;;;;;;5.90;2.90;;;7.70;99.90;;;;;;5012947;28;20145;-88
2022/04/05 11:31:28;;;;;;;5.22;3.10;;;7.70;99.90;;;;;;4994221;28;20109;-88
2022/04/05 11:33:54;;;;;;;4.53;2.83;;;7.70;99.90;;;;;;5012717;28;20559;-87
2022/04/05 11:36:25;;;;;;;4.45;2.55;;;7.80;99.90;;;;;;5012703;28;20025;-86
2022/04/05 11:38:56;;;;;;;3.95;2.63;;;7.80;99.90;;;;;;5012674;28;20076;-87
2022/04/05 11:41:27;;;;;;;5.18;2.75;;;7.80;99.90;;;;;;5013984;28;20025;-87
2022/04/05 11:44:01;;;;;;;5.43;2.65;;;7.80;99.90;;;;;;5012520;28;20496;-85
2022/04/05 11:46:28;;;;;;;5.55;3.00;;;7.80;99.90;;;;;;5012800;28;20026;-85
2022/04/05 11:48:56;;;;;;;3.22;2.45;;;7.80;99.90;;;;;;5012527;28;20117;-85
2022/04/05 11:51:28;;;;;;;3.63;2.58;;;7.80;99.90;;;;;;5013760;28;20022;-84
2022/04/05 11:54:05;;;;;;;4.40;2.88;;;7.80;99.90;;;;;;5012356;28;20068;-85
2022/04/05 11:56:31;;;;;;;4.47;2.80;;;7.80;99.90;;;;;;5013704;28;20109;-83
2022/04/05 11:58:59;;;;;;;4.30;3.00;;;7.80;99.90;;;;;;5012362;28;20472;-83
2022/04/05 12:01:28;;;;;;;3.38;2.42;;;7.80;99.90;;;;;;5012404;28;20465;-85
2022/04/05 12:04:01;;;;;;;4.78;2.72;;;7.80;99.90;;;;;;5013819;28;20485;-85
2022/04/05 12:06:32;;;;;;;3.28;2.50;;;7.80;99.90;;;;;;5012268;28;20060;-85
2022/04/05 12:09:04;;;;;;;3.72;2.90;;;7.80;99.90;;;;;;5011856;28;20026;-85
2022/04/05 12:11:31;;;;;;;4.72;2.65;;;7.80;99.90;;;;;;5013208;28;20030;-85
2022/04/05 12:14:01;;;;;;;4.30;2.50;;;7.80;99.90;;;;;;5012051;28;20108;-85
2022/04/05 12:16:49;;;;;;;4.95;2.58;;;7.80;99.90;;;;;;5012143;28;20030;-85
2022/04/05 12:19:20;;;;;;;4.65;2.55;;;7.80;99.90;;;;;;5011965;28;20034;-85
2022/04/05 12:21:50;;;;;;;3.63;2.40;;;7.80;99.90;;;;;;5012089;28;20053;-85
2022/04/05 12:24:16;;;;;;;3.60;2.58;;;7.80;99.90;;;;;;5012265;28;20117;-86
2022/04/05 12:26:42;;;;;;;4.88;2.40;;;7.90;99.90;;;;;;5012054;28;20046;-85
2022/04/05 12:29:08;;;;;;;4.82;2.58;;;7.80;99.90;;;;;;5013246;28;20430;-85
2022/04/05 12:31:34;;;;;;;2.95;2.10;;;7.90;99.90;;;;;;5011971;28;20389;-86
2022/04/05 12:34:13;;;;;;;2.60;2.00;;;7.90;99.90;;;;;;5011970;28;20022;-85
2022/04/05 12:36:40;;;;;;;4.10;2.35;;;7.90;99.90;;;;;;5011954;28;20049;-84
2022/04/05 12:39:18;;;;;;;3.67;2.10;;;8.00;99.90;;;;;;5013175;28;20385;-84
2022/04/05 12:41:46;;;;;;;3.35;1.98;;;7.90;99.90;;;;;;5013839;28;20397;-86
2022/04/05 12:44:13;;;;;;;3.17;2.20;;;8.00;99.90;;;;;;5011788;28;20029;-84
2022/04/05 12:46:58;;;;;;;5.47;2.50;;;8.00;99.90;;;;;;5011811;28;20118;-85
2022/04/05 12:49:44;;;;;;;2.90;2.10;;;8.10;99.90;;;;;;5013464;28;20025;-86
2022/04/05 12:52:25;;;;;;;4.60;2.45;;;8.00;99.90;;;;;;5011853;28;20030;-83
2022/04/05 12:54:52;;;;;;;3.58;1.98;;;8.00;99.90;;;;;;5011760;28;20030;-85
2022/04/05 12:57:29;;;;;;;3.33;2.20;;;8.00;99.90;;;;;;5011662;28;20040;-84
2022/04/05 13:00:07;;;;;;;4.25;2.53;;;8.00;99.90;;;;;;5011793;28;20147;-84
2022/04/05 13:02:39;;;;;;;4.20;2.20;;;8.00;99.90;;;;;;5012927;28;20030;-84
2022/04/05 13:08:26;;;;;;;3.08;1.98;;;8.00;99.90;;;;;;5013463;28;20377;-85